createdAt,value
2018-12-15T00:00:41.924Z,0
2018-12-15T00:01:42.158Z,0
2018-12-15T00:02:42.654Z,0
2018-12-15T00:03:42.647Z,0
2018-12-15T00:04:42.945Z,0
2018-12-15T00:05:42.698Z,0
2018-12-15T00:06:42.981Z,0
2018-12-15T00:07:43.008Z,0
2018-12-15T00:08:42.761Z,0
2018-12-15T00:09:43.055Z,0
2018-12-15T00:10:42.850Z,0
2018-12-15T00:11:43.395Z,0
2018-12-15T00:12:42.847Z,0
2018-12-15T00:13:42.870Z,0
2018-12-15T00:14:43.212Z,0
2018-12-15T00:15:43.669Z,0
2018-12-15T00:16:43.270Z,0
2018-12-15T00:17:43.222Z,0
2018-12-15T00:18:43.371Z,0
2018-12-15T00:19:43.263Z,0
2018-12-15T00:20:43.080Z,0
2018-12-15T00:21:43.368Z,0
2018-12-15T00:22:43.070Z,0
2018-12-15T00:23:43.607Z,0
2018-12-15T00:24:43.892Z,0
2018-12-15T00:25:43.873Z,0
2018-12-15T00:26:43.372Z,0
2018-12-15T00:27:44.041Z,0
2018-12-15T00:28:43.415Z,0
2018-12-15T00:29:43.712Z,0
2018-12-15T00:30:43.725Z,0
2018-12-15T00:31:43.251Z,0
2018-12-15T00:32:43.762Z,0
2018-12-15T00:33:43.719Z,0
2018-12-15T00:34:43.814Z,0
2018-12-15T00:35:43.812Z,0
2018-12-15T00:36:43.614Z,0
2018-12-15T00:37:44.037Z,0
2018-12-15T00:38:43.875Z,0
2018-12-15T00:39:44.155Z,0
2018-12-15T00:40:44.595Z,0
2018-12-15T00:41:43.935Z,0
2018-12-15T00:42:43.955Z,0
2018-12-15T00:43:44.490Z,0
2018-12-15T00:44:44.918Z,0
2018-12-15T00:45:44.909Z,0
2018-12-15T00:46:44.589Z,0
2018-12-15T00:47:44.451Z,0
2018-12-15T00:48:44.810Z,0
2018-12-15T00:49:44.389Z,0
2018-12-15T00:50:45.030Z,0
2018-12-15T00:51:44.877Z,0
2018-12-15T00:52:44.620Z,0
2018-12-15T00:53:44.447Z,0
2018-12-15T00:54:45.200Z,0
2018-12-15T00:55:44.430Z,0
2018-12-15T00:56:44.847Z,0
2018-12-15T00:57:44.201Z,0
2018-12-15T00:58:44.745Z,0
2018-12-15T00:59:44.500Z,0
2018-12-15T01:00:44.520Z,0
2018-12-15T01:01:44.229Z,0
2018-12-15T01:02:45.436Z,0
2018-12-15T01:03:44.863Z,0
2018-12-15T01:04:44.682Z,0
2018-12-15T01:05:44.737Z,0
2018-12-15T01:06:45.068Z,0
2018-12-15T01:07:45.317Z,0
2018-12-15T01:08:45.229Z,0
2018-12-15T01:09:44.960Z,0
2018-12-15T01:10:45.984Z,0
2018-12-15T01:11:45.682Z,0
2018-12-15T01:12:45.643Z,0
2018-12-15T01:13:46.164Z,0
2018-12-15T01:14:46.874Z,0
2018-12-15T01:15:47.432Z,0
2018-12-15T01:16:46.957Z,0
2018-12-15T01:17:46.410Z,0
2018-12-15T01:18:46.642Z,0
2018-12-15T01:19:46.712Z,0
2018-12-15T01:20:47.132Z,0
2018-12-15T01:21:47.630Z,0
2018-12-15T01:22:47.179Z,0
2018-12-15T01:23:46.958Z,0
2018-12-15T01:24:47.447Z,0
2018-12-15T01:25:47.644Z,0
2018-12-15T01:26:47.358Z,0
2018-12-15T01:27:48.173Z,0
2018-12-15T01:28:47.418Z,0
2018-12-15T01:29:47.416Z,0
2018-12-15T01:30:47.556Z,0
2018-12-15T01:31:47.593Z,0
2018-12-15T01:32:47.028Z,0
2018-12-15T01:33:47.927Z,0
2018-12-15T01:34:47.963Z,0
2018-12-15T01:35:47.638Z,0
2018-12-15T01:36:47.612Z,0
2018-12-15T01:37:47.365Z,0
2018-12-15T01:40:55.271Z,0
2018-12-15T01:41:55.286Z,0
2018-12-15T01:42:55.295Z,0
2018-12-15T01:43:55.599Z,0
2018-12-15T01:44:55.163Z,0
2018-12-15T01:45:55.641Z,0
2018-12-15T01:46:55.949Z,0
2018-12-15T01:47:55.732Z,0
2018-12-15T01:48:55.723Z,0
2018-12-15T01:49:55.728Z,0
2018-12-15T01:50:55.496Z,0
2018-12-15T01:51:55.773Z,0
2018-12-15T01:52:55.595Z,0
2018-12-15T01:53:55.970Z,0
2018-12-15T01:54:55.733Z,0
2018-12-15T01:55:56.784Z,0
2018-12-15T01:56:56.756Z,0
2018-12-15T01:57:56.782Z,0
2018-12-15T01:58:56.524Z,0
2018-12-15T01:59:56.541Z,0
2018-12-15T02:00:56.300Z,0
2018-12-15T02:01:57.036Z,0
2018-12-15T02:02:57.060Z,0
2018-12-15T02:03:57.087Z,0
2018-12-15T02:04:57.095Z,0
2018-12-15T02:05:57.124Z,0
2018-12-15T02:06:57.145Z,0
2018-12-15T02:07:57.157Z,0
2018-12-15T02:08:57.187Z,0
2018-12-15T02:09:56.949Z,0
2018-12-15T02:10:57.215Z,0
2018-12-15T02:11:58.373Z,0
2018-12-15T02:12:57.275Z,0
2018-12-15T02:13:57.021Z,0
2018-12-15T02:14:57.069Z,0
2018-12-15T02:15:57.553Z,0
2018-12-15T02:16:57.579Z,0
2018-12-15T02:17:57.331Z,0
2018-12-15T02:18:58.085Z,0
2018-12-15T02:19:58.085Z,0
2018-12-15T02:20:57.898Z,0
2018-12-15T02:21:58.364Z,0
2018-12-15T02:22:58.393Z,0
2018-12-15T02:23:58.171Z,0
2018-12-15T02:24:58.516Z,0
2018-12-15T02:25:58.445Z,0
2018-12-15T02:26:58.474Z,0
2018-12-15T02:27:58.499Z,0
2018-12-15T02:28:58.315Z,0
2018-12-15T02:29:58.537Z,0
2018-12-15T02:30:58.691Z,0
2018-12-15T02:31:58.612Z,0
2018-12-15T02:32:58.649Z,0
2018-12-15T02:33:58.632Z,0
2018-12-15T02:34:58.636Z,0
2018-12-15T02:35:58.652Z,0
2018-12-15T02:36:58.677Z,0
2018-12-15T02:37:58.444Z,0
2018-12-15T02:38:58.471Z,0
2018-12-15T02:39:58.730Z,0
2018-12-15T02:40:59.205Z,0
2018-12-15T02:41:59.393Z,0
2018-12-15T02:42:59.690Z,0
2018-12-15T02:43:59.937Z,0
2018-12-15T02:44:59.926Z,0
2018-12-15T02:45:59.932Z,0
2018-12-15T02:46:59.952Z,0
2018-12-15T02:48:00.011Z,0
2018-12-15T02:48:59.757Z,0
2018-12-15T02:49:59.950Z,0
2018-12-15T02:51:00.290Z,0
2018-12-15T02:52:00.284Z,0
2018-12-15T02:53:00.285Z,0
2018-12-15T02:54:00.298Z,0
2018-12-15T02:55:00.355Z,0
2018-12-15T02:56:00.967Z,0
2018-12-15T02:57:00.182Z,0
2018-12-15T02:58:00.677Z,0
2018-12-15T02:59:00.705Z,0
2018-12-15T03:01:00.737Z,0
2018-12-15T03:02:00.285Z,0
2018-12-15T03:03:01.163Z,0
2018-12-15T03:04:01.167Z,0
2018-12-15T03:05:00.855Z,0
2018-12-15T03:06:01.226Z,0
2018-12-15T03:07:01.119Z,0
2018-12-15T03:08:01.152Z,0
2018-12-15T03:09:00.910Z,0
2018-12-15T03:10:01.164Z,0
2018-12-15T03:11:01.179Z,0
2018-12-15T03:12:00.991Z,0
2018-12-15T03:13:01.245Z,0
2018-12-15T03:14:01.380Z,0
2018-12-15T03:15:01.281Z,0
2018-12-15T03:16:01.301Z,0
2018-12-15T03:17:01.359Z,0
2018-12-15T03:18:01.099Z,0
2018-12-15T03:19:01.157Z,0
2018-12-15T03:20:01.622Z,0
2018-12-15T03:21:01.677Z,0
2018-12-15T03:22:01.682Z,0
2018-12-15T03:23:01.717Z,0
2018-12-15T03:24:01.778Z,0
2018-12-15T03:25:01.724Z,0
2018-12-15T03:26:01.816Z,0
2018-12-15T03:27:01.515Z,0
2018-12-15T03:28:01.726Z,0
2018-12-15T03:29:02.211Z,0
2018-12-15T03:30:01.936Z,0
2018-12-15T03:31:02.641Z,0
2018-12-15T03:32:02.845Z,0
2018-12-15T03:33:02.833Z,0
2018-12-15T03:34:02.841Z,0
2018-12-15T03:35:02.860Z,0
2018-12-15T03:36:02.842Z,0
2018-12-15T03:37:02.933Z,0
2018-12-15T03:38:02.880Z,0
2018-12-15T03:39:02.973Z,0
2018-12-15T03:40:03.031Z,0
2018-12-15T03:41:02.767Z,0
2018-12-15T03:42:02.728Z,0
2018-12-15T03:43:03.401Z,0
2018-12-15T03:44:03.416Z,0
2018-12-15T03:45:03.478Z,0
2018-12-15T03:46:03.476Z,0
2018-12-15T03:47:03.515Z,0
2018-12-15T03:48:04.182Z,0
2018-12-15T03:49:04.322Z,0
2018-12-15T03:50:04.160Z,0
2018-12-15T03:51:04.378Z,0
2018-12-15T03:52:04.215Z,0
2018-12-15T03:53:04.381Z,0
2018-12-15T03:54:04.005Z,0
2018-12-15T03:55:04.914Z,0
2018-12-15T03:56:04.956Z,0
2018-12-15T03:57:04.870Z,0
2018-12-15T03:58:04.962Z,0
2018-12-15T03:59:04.903Z,0
2018-12-15T04:01:05.020Z,0
2018-12-15T04:02:04.705Z,0
2018-12-15T04:03:05.236Z,0
2018-12-15T04:04:05.192Z,0
2018-12-15T04:05:05.031Z,0
2018-12-15T04:06:04.938Z,0
2018-12-15T04:07:05.310Z,0
2018-12-15T04:08:05.743Z,0
2018-12-15T04:09:05.957Z,0
2018-12-15T04:10:06.008Z,0
2018-12-15T04:11:06.123Z,0
2018-12-15T04:12:06.590Z,0
2018-12-15T04:13:06.562Z,0
2018-12-15T04:14:06.887Z,0
2018-12-15T04:15:06.906Z,0
2018-12-15T04:16:06.570Z,0
2018-12-15T04:17:06.941Z,0
2018-12-15T04:18:11.077Z,0
2018-12-15T04:19:07.047Z,0
2018-12-15T04:20:07.312Z,0
2018-12-15T04:21:06.771Z,0
2018-12-15T04:22:07.191Z,0
2018-12-15T04:23:07.621Z,0
2018-12-15T04:24:06.936Z,0
2018-12-15T04:25:07.732Z,0
2018-12-15T04:26:07.700Z,0
2018-12-15T04:27:07.454Z,0
2018-12-15T04:28:07.847Z,0
2018-12-15T04:29:08.218Z,0
2018-12-15T04:30:08.503Z,0
2018-12-15T04:31:08.888Z,0
2018-12-15T04:32:09.542Z,0
2018-12-15T04:33:09.296Z,0
2018-12-15T04:34:09.597Z,0
2018-12-15T04:35:09.374Z,0
2018-12-15T04:36:09.992Z,0
2018-12-15T04:37:09.822Z,0
2018-12-15T04:38:10.287Z,0
2018-12-15T04:39:10.408Z,0
2018-12-15T04:40:10.908Z,0
2018-12-15T04:41:11.394Z,0
2018-12-15T04:42:11.874Z,0
2018-12-15T04:43:11.608Z,0
2018-12-15T04:44:11.830Z,0
2018-12-15T04:45:11.684Z,0
2018-12-15T04:46:11.907Z,0
2018-12-15T04:47:11.917Z,0
2018-12-15T04:48:18.997Z,0
2018-12-15T04:49:18.318Z,0
2018-12-15T04:50:18.951Z,0
2018-12-15T04:51:19.412Z,0
2018-12-15T04:52:19.546Z,0
2018-12-15T04:53:20.171Z,0
2018-12-15T04:54:20.189Z,0
2018-12-15T04:55:21.154Z,0
2018-12-15T04:56:20.233Z,0
2018-12-15T04:57:20.249Z,0
2018-12-15T04:58:19.789Z,0
2018-12-15T04:59:20.279Z,0
2018-12-15T05:00:19.259Z,0
2018-12-15T05:01:20.105Z,0
2018-12-15T05:02:20.791Z,0
2018-12-15T05:03:21.177Z,0
2018-12-15T05:04:20.939Z,0
2018-12-15T05:05:21.033Z,0
2018-12-15T05:06:21.078Z,0
2018-12-15T05:07:21.206Z,0
2018-12-15T05:08:21.612Z,0
2018-12-15T05:09:21.596Z,0
2018-12-15T05:10:21.732Z,0
2018-12-15T05:11:21.779Z,0
2018-12-15T05:12:22.158Z,0
2018-12-15T05:13:21.914Z,0
2018-12-15T05:14:22.343Z,0
2018-12-15T05:15:22.369Z,0
2018-12-15T05:16:22.515Z,0
2018-12-15T05:17:22.374Z,0
2018-12-15T05:18:26.121Z,0
2018-12-15T05:19:26.508Z,0
2018-12-15T05:20:26.512Z,0
2018-12-15T05:21:26.270Z,0
2018-12-15T05:22:26.636Z,0
2018-12-15T05:23:27.252Z,0
2018-12-15T05:24:27.644Z,0
2018-12-15T05:25:27.667Z,0
2018-12-15T05:26:27.445Z,0
2018-12-15T05:27:28.061Z,0
2018-12-15T05:28:28.197Z,0
2018-12-15T05:29:28.585Z,0
2018-12-15T05:30:28.936Z,0
2018-12-15T05:31:28.964Z,0
2018-12-15T05:32:29.019Z,0
2018-12-15T05:33:29.482Z,0
2018-12-15T05:34:29.171Z,0
2018-12-15T05:35:29.527Z,0
2018-12-15T05:36:30.197Z,0
2018-12-15T05:37:29.925Z,0
2018-12-15T05:38:30.309Z,0
2018-12-15T05:39:30.332Z,0
2018-12-15T05:40:30.123Z,0
2018-12-15T05:41:30.752Z,0
2018-12-15T05:42:30.782Z,0
2018-12-15T05:43:31.148Z,0
2018-12-15T05:44:31.269Z,0
2018-12-15T05:45:31.907Z,0
2018-12-15T05:46:31.661Z,0
2018-12-15T05:47:32.022Z,0
2018-12-15T05:48:33.312Z,0
2018-12-15T05:49:32.799Z,0
2018-12-15T05:50:33.347Z,0
2018-12-15T05:51:33.441Z,0
2018-12-15T05:52:33.567Z,0
2018-12-15T05:53:34.217Z,0
2018-12-15T05:54:34.371Z,0
2018-12-15T05:55:34.988Z,0
2018-12-15T05:56:34.776Z,0
2018-12-15T05:57:34.899Z,0
2018-12-15T05:58:35.599Z,0
2018-12-15T05:59:35.615Z,0
2018-12-15T06:00:35.419Z,0
2018-12-15T06:01:35.655Z,0
2018-12-15T06:02:35.418Z,0
2018-12-15T06:03:35.535Z,0
2018-12-15T06:04:35.897Z,0
2018-12-15T06:05:36.025Z,0
2018-12-15T06:06:36.639Z,0
2018-12-15T06:07:36.390Z,0
2018-12-15T06:08:36.483Z,0
2018-12-15T06:09:36.842Z,0
2018-12-15T06:10:36.649Z,0
2018-12-15T06:11:37.051Z,0
2018-12-15T06:12:37.030Z,0
2018-12-15T06:13:37.053Z,0
2018-12-15T06:14:36.851Z,0
2018-12-15T06:15:36.961Z,0
2018-12-15T06:16:37.569Z,0
2018-12-15T06:17:37.595Z,0
2018-12-15T06:18:39.333Z,0
2018-12-15T06:19:39.670Z,0
2018-12-15T06:20:39.416Z,0
2018-12-15T06:21:39.822Z,0
2018-12-15T06:22:40.177Z,0
2018-12-15T06:23:40.992Z,0
2018-12-15T06:24:41.101Z,0
2018-12-15T06:25:41.478Z,0
2018-12-15T06:26:42.103Z,0
2018-12-15T06:27:42.112Z,0
2018-12-15T06:28:42.131Z,0
2018-12-15T06:29:41.904Z,0
2018-12-15T06:30:42.173Z,0
2018-12-15T06:31:42.499Z,0
2018-12-15T06:32:42.883Z,0
2018-12-15T06:33:42.619Z,0
2018-12-15T06:34:43.056Z,0
2018-12-15T06:35:43.406Z,0
2018-12-15T06:36:43.490Z,0
2018-12-15T06:37:43.843Z,0
2018-12-15T06:38:43.622Z,0
2018-12-15T06:39:44.240Z,0
2018-12-15T06:40:43.995Z,0
2018-12-15T06:41:44.357Z,0
2018-12-15T06:42:44.455Z,0
2018-12-15T06:43:44.404Z,0
2018-12-15T06:44:44.512Z,0
2018-12-15T06:45:45.120Z,0
2018-12-15T06:46:44.884Z,0
2018-12-15T06:47:45.262Z,0
2018-12-15T06:48:46.118Z,0
2018-12-15T06:49:46.133Z,0
2018-12-15T06:50:46.172Z,0
2018-12-15T06:51:46.304Z,4
2018-12-15T06:52:46.689Z,4
2018-12-15T06:53:47.127Z,0
2018-12-15T06:54:47.741Z,0
2018-12-15T06:55:48.419Z,0
2018-12-15T06:56:47.785Z,4
2018-12-15T06:57:47.826Z,4
2018-12-15T06:58:47.936Z,0
2018-12-15T06:59:47.722Z,4
2018-12-15T07:00:48.167Z,4
2018-12-15T07:01:47.873Z,4
2018-12-15T07:02:47.971Z,4
2018-12-15T07:03:48.273Z,4
2018-12-15T07:04:48.301Z,4
2018-12-15T07:05:48.059Z,8
2018-12-15T07:06:49.852Z,4
2018-12-15T07:07:49.887Z,8
2018-12-15T07:08:50.347Z,8
2018-12-15T07:09:50.340Z,12
2018-12-15T07:10:49.914Z,8
2018-12-15T07:11:50.208Z,12
2018-12-15T07:12:50.165Z,12
2018-12-15T07:13:50.531Z,12
2018-12-15T07:14:50.632Z,12
2018-12-15T07:15:51.047Z,16
2018-12-15T07:16:50.783Z,16
2018-12-15T07:17:51.140Z,16
2018-12-15T07:18:52.557Z,20
2018-12-15T07:19:50.913Z,20
2018-12-15T07:20:51.548Z,20
2018-12-15T07:21:51.587Z,20
2018-12-15T07:22:51.318Z,24
2018-12-15T07:23:51.603Z,24
2018-12-15T07:24:51.624Z,24
2018-12-15T07:25:51.680Z,28
2018-12-15T07:26:51.666Z,28
2018-12-15T07:27:52.025Z,28
2018-12-15T07:28:51.895Z,32
2018-12-15T07:29:52.420Z,32
2018-12-15T07:30:52.202Z,36
2018-12-15T07:31:52.332Z,36
2018-12-15T07:32:52.942Z,40
2018-12-15T07:33:53.030Z,40
2018-12-15T07:34:53.654Z,48
2018-12-15T07:35:53.410Z,48
2018-12-15T07:36:53.841Z,52
2018-12-15T07:37:53.829Z,56
2018-12-15T07:38:53.863Z,56
2018-12-15T07:39:54.511Z,64
2018-12-15T07:40:54.023Z,64
2018-12-15T07:41:54.649Z,68
2018-12-15T07:42:54.775Z,68
2018-12-15T07:43:55.080Z,72
2018-12-15T07:44:55.174Z,76
2018-12-15T07:45:55.318Z,80
2018-12-15T07:46:55.950Z,84
2018-12-15T07:47:55.972Z,84
2018-12-15T07:48:58.846Z,88
2018-12-15T07:49:56.021Z,88
2018-12-15T07:50:55.900Z,92
2018-12-15T07:51:56.418Z,96
2018-12-15T07:52:56.466Z,96
2018-12-15T07:53:56.462Z,100
2018-12-15T07:54:56.811Z,100
2018-12-15T07:55:56.335Z,104
2018-12-15T07:56:56.962Z,108
2018-12-15T07:57:57.314Z,108
2018-12-15T07:58:57.672Z,108
2018-12-15T07:59:57.772Z,112
2018-12-15T08:00:57.913Z,116
2018-12-15T08:01:57.757Z,120
2018-12-15T08:02:57.803Z,124
2018-12-15T08:03:57.808Z,128
2018-12-15T08:04:57.625Z,132
2018-12-15T08:05:57.845Z,136
2018-12-15T08:06:57.954Z,140
2018-12-15T08:07:57.943Z,144
2018-12-15T08:08:57.639Z,152
2018-12-15T08:09:58.102Z,156
2018-12-15T08:10:58.124Z,164
2018-12-15T08:11:58.124Z,168
2018-12-15T08:12:58.123Z,176
2018-12-15T08:13:57.902Z,176
2018-12-15T08:14:58.610Z,180
2018-12-15T08:15:58.642Z,188
2018-12-15T08:16:58.648Z,192
2018-12-15T08:17:58.841Z,200
2018-12-15T08:19:05.956Z,200
2018-12-15T08:20:05.846Z,204
2018-12-15T08:21:05.898Z,208
2018-12-15T08:22:05.887Z,212
2018-12-15T08:23:05.892Z,216
2018-12-15T08:24:05.649Z,220
2018-12-15T08:25:06.056Z,220
2018-12-15T08:26:06.793Z,232
2018-12-15T08:27:06.795Z,236
2018-12-15T08:28:06.826Z,240
2018-12-15T08:29:06.811Z,252
2018-12-15T08:30:06.586Z,260
2018-12-15T08:31:07.056Z,260
2018-12-15T08:32:07.747Z,260
2018-12-15T08:33:07.767Z,264
2018-12-15T08:34:07.520Z,272
2018-12-15T08:35:07.966Z,276
2018-12-15T08:36:07.952Z,280
2018-12-15T08:37:08.600Z,288
2018-12-15T08:38:08.916Z,304
2018-12-15T08:39:08.357Z,316
2018-12-15T08:40:09.111Z,324
2018-12-15T08:41:09.094Z,324
2018-12-15T08:42:08.864Z,324
2018-12-15T08:43:09.092Z,336
2018-12-15T08:44:09.556Z,352
2018-12-15T08:45:09.645Z,368
2018-12-15T08:46:09.289Z,380
2018-12-15T08:47:09.470Z,392
2018-12-15T08:48:09.986Z,392
2018-12-15T08:49:12.162Z,404
2018-12-15T08:50:10.099Z,404
2018-12-15T08:51:10.052Z,424
2018-12-15T08:52:09.807Z,432
2018-12-15T08:53:10.488Z,452
2018-12-15T08:54:10.276Z,468
2018-12-15T08:55:10.462Z,484
2018-12-15T08:56:11.177Z,484
2018-12-15T08:57:11.175Z,516
2018-12-15T08:58:11.173Z,528
2018-12-15T08:59:11.226Z,528
2018-12-15T09:01:10.991Z,520
2018-12-15T09:02:11.659Z,508
2018-12-15T09:03:11.407Z,504
2018-12-15T09:04:11.788Z,508
2018-12-15T09:05:12.075Z,528
2018-12-15T09:06:11.988Z,540
2018-12-15T09:07:12.370Z,556
2018-12-15T09:08:12.138Z,592
2018-12-15T09:09:12.168Z,616
2018-12-15T09:10:12.629Z,620
2018-12-15T09:11:13.272Z,636
2018-12-15T09:12:13.323Z,628
2018-12-15T09:13:13.204Z,636
2018-12-15T09:14:13.816Z,648
2018-12-15T09:15:13.592Z,648
2018-12-15T09:16:13.604Z,628
2018-12-15T09:17:14.215Z,652
2018-12-15T09:18:14.757Z,696
2018-12-15T09:19:18.400Z,740
2018-12-15T09:20:14.618Z,780
2018-12-15T09:21:14.641Z,812
2018-12-15T09:22:18.519Z,824
2018-12-15T09:23:14.698Z,808
2018-12-15T09:24:14.690Z,788
2018-12-15T09:25:14.720Z,788
2018-12-15T09:26:14.718Z,852
2018-12-15T09:27:14.316Z,888
2018-12-15T09:28:14.831Z,884
2018-12-15T09:29:14.670Z,880
2018-12-15T09:30:14.769Z,844
2018-12-15T09:31:15.118Z,808
2018-12-15T09:32:15.218Z,760
2018-12-15T09:33:15.351Z,720
2018-12-15T09:34:15.958Z,700
2018-12-15T09:35:16.219Z,660
2018-12-15T09:36:15.956Z,660
2018-12-15T09:37:16.579Z,700
2018-12-15T09:38:16.911Z,732
2018-12-15T09:39:17.028Z,756
2018-12-15T09:40:17.905Z,768
2018-12-15T09:41:16.911Z,784
2018-12-15T09:42:17.709Z,804
2018-12-15T09:43:17.480Z,804
2018-12-15T09:44:17.329Z,792
2018-12-15T09:45:18.203Z,820
2018-12-15T09:46:17.878Z,800
2018-12-15T09:47:17.881Z,760
2018-12-15T09:48:18.247Z,732
2018-12-15T09:49:24.796Z,696
2018-12-15T09:50:18.282Z,668
2018-12-15T09:51:18.054Z,596
2018-12-15T09:52:18.167Z,524
2018-12-15T09:53:18.860Z,484
2018-12-15T09:54:18.532Z,476
2018-12-15T09:55:18.977Z,480
2018-12-15T09:56:18.943Z,480
2018-12-15T09:57:19.148Z,488
2018-12-15T09:58:19.789Z,504
2018-12-15T09:59:20.161Z,508
2018-12-15T10:00:20.514Z,516
2018-12-15T10:01:21.445Z,528
2018-12-15T10:02:20.238Z,532
2018-12-15T10:03:20.294Z,532
2018-12-15T10:04:20.299Z,536
2018-12-15T10:05:20.326Z,548
2018-12-15T10:06:20.094Z,548
2018-12-15T10:07:20.351Z,544
2018-12-15T10:08:20.362Z,548
2018-12-15T10:09:20.403Z,544
2018-12-15T10:10:20.869Z,536
2018-12-15T10:11:21.361Z,532
2018-12-15T10:12:21.079Z,528
2018-12-15T10:13:21.791Z,524
2018-12-15T10:14:21.791Z,528
2018-12-15T10:15:21.547Z,524
2018-12-15T10:16:21.991Z,520
2018-12-15T10:17:21.992Z,516
2018-12-15T10:18:22.042Z,512
2018-12-15T10:19:26.837Z,504
2018-12-15T10:20:22.344Z,500
2018-12-15T10:21:22.079Z,500
2018-12-15T10:22:22.338Z,504
2018-12-15T10:23:22.037Z,504
2018-12-15T10:24:22.761Z,492
2018-12-15T10:25:22.873Z,480
2018-12-15T10:26:22.543Z,468
2018-12-15T10:27:23.078Z,460
2018-12-15T10:28:23.024Z,460
2018-12-15T10:29:24.098Z,468
2018-12-15T10:30:23.071Z,476
2018-12-15T10:31:23.349Z,480
2018-12-15T10:32:23.089Z,480
2018-12-15T10:33:23.597Z,480
2018-12-15T10:34:23.913Z,476
2018-12-15T10:35:23.860Z,484
2018-12-15T10:36:23.651Z,492
2018-12-15T10:37:23.672Z,504
2018-12-15T10:38:24.136Z,516
2018-12-15T10:39:23.482Z,524
2018-12-15T10:40:24.007Z,520
2018-12-15T10:41:24.335Z,520
2018-12-15T10:42:23.794Z,516
2018-12-15T10:43:24.244Z,512
2018-12-15T10:44:23.982Z,516
2018-12-15T10:45:24.603Z,512
2018-12-15T10:46:25.132Z,500
2018-12-15T10:47:24.551Z,496
2018-12-15T10:48:25.265Z,492
2018-12-15T10:49:30.618Z,492
2018-12-15T10:50:25.338Z,496
2018-12-15T10:51:25.358Z,496
2018-12-15T10:52:25.342Z,488
2018-12-15T10:53:25.369Z,492
2018-12-15T10:54:25.418Z,480
2018-12-15T10:55:25.582Z,460
2018-12-15T10:56:25.466Z,444
2018-12-15T10:57:25.453Z,440
2018-12-15T10:58:25.465Z,448
2018-12-15T10:59:25.207Z,456
2018-12-15T11:00:25.167Z,464
2018-12-15T11:01:26.164Z,468
2018-12-15T11:02:26.036Z,468
2018-12-15T11:03:26.302Z,468
2018-12-15T11:04:26.233Z,464
2018-12-15T11:05:26.678Z,460
2018-12-15T11:06:26.671Z,472
2018-12-15T11:07:27.069Z,480
2018-12-15T11:08:26.849Z,488
2018-12-15T11:09:27.519Z,496
2018-12-15T11:10:27.321Z,504
2018-12-15T11:11:27.755Z,512
2018-12-15T11:12:27.777Z,524
2018-12-15T11:13:27.808Z,536
2018-12-15T11:14:27.558Z,548
2018-12-15T11:15:28.130Z,548
2018-12-15T11:16:28.384Z,552
2018-12-15T11:17:29.107Z,548
2018-12-15T11:18:29.098Z,552
2018-12-15T11:19:28.800Z,552
2018-12-15T11:20:29.119Z,560
2018-12-15T11:21:29.156Z,548
2018-12-15T11:22:29.188Z,548
2018-12-15T11:23:29.182Z,536
2018-12-15T11:24:29.206Z,560
2018-12-15T11:25:29.255Z,576
2018-12-15T11:26:29.424Z,580
2018-12-15T11:27:29.799Z,576
2018-12-15T11:28:29.902Z,580
2018-12-15T11:29:29.871Z,568
2018-12-15T11:30:29.916Z,572
2018-12-15T11:31:29.913Z,588
2018-12-15T11:32:29.986Z,572
2018-12-15T11:33:29.946Z,548
2018-12-15T11:34:29.996Z,524
2018-12-15T11:35:30.023Z,476
2018-12-15T11:36:30.035Z,440
2018-12-15T11:37:30.409Z,416
2018-12-15T11:38:30.077Z,396
2018-12-15T11:39:30.102Z,380
2018-12-15T11:40:30.496Z,380
2018-12-15T11:41:30.964Z,368
2018-12-15T11:42:30.706Z,356
2018-12-15T11:43:31.444Z,360
2018-12-15T11:44:31.293Z,348
2018-12-15T11:45:31.209Z,368
2018-12-15T11:46:31.930Z,368
2018-12-15T11:47:31.915Z,332
2018-12-15T11:48:31.706Z,304
2018-12-15T11:49:32.396Z,300
2018-12-15T11:50:32.795Z,336
2018-12-15T11:51:32.476Z,348
2018-12-15T11:52:32.544Z,320
2018-12-15T11:53:32.907Z,324
2018-12-15T11:54:32.515Z,348
2018-12-15T11:55:32.574Z,336
2018-12-15T11:56:32.600Z,312
2018-12-15T11:57:32.344Z,316
2018-12-15T11:58:33.654Z,328
2018-12-15T11:59:33.098Z,380
2018-12-15T12:00:33.143Z,376
2018-12-15T12:01:33.368Z,368
2018-12-15T12:02:39.231Z,388
2018-12-15T12:03:32.961Z,392
2018-12-15T12:04:33.262Z,392
2018-12-15T12:05:33.279Z,400
2018-12-15T12:06:33.009Z,396
2018-12-15T12:07:33.579Z,348
2018-12-15T12:08:33.740Z,364
2018-12-15T12:09:33.618Z,380
2018-12-15T12:10:33.622Z,396
2018-12-15T12:11:34.118Z,372
2018-12-15T12:12:34.413Z,356
2018-12-15T12:13:34.153Z,364
2018-12-15T12:14:33.920Z,376
2018-12-15T12:15:34.377Z,388
2018-12-15T12:16:34.834Z,404
2018-12-15T12:17:34.777Z,420
2018-12-15T12:18:35.506Z,408
2018-12-15T12:19:35.521Z,416
2018-12-15T12:20:36.617Z,424
2018-12-15T12:21:35.063Z,420
2018-12-15T12:22:35.645Z,420
2018-12-15T12:23:35.125Z,420
2018-12-15T12:24:35.413Z,428
2018-12-15T12:25:35.164Z,444
2018-12-15T12:26:35.685Z,464
2018-12-15T12:27:35.463Z,468
2018-12-15T12:28:35.723Z,472
2018-12-15T12:29:35.743Z,456
2018-12-15T12:30:36.282Z,436
2018-12-15T12:31:36.044Z,444
2018-12-15T12:32:36.301Z,440
2018-12-15T12:33:36.073Z,432
2018-12-15T12:34:36.091Z,444
2018-12-15T12:35:36.582Z,436
2018-12-15T12:36:37.392Z,424
2018-12-15T12:37:36.595Z,400
2018-12-15T12:38:36.803Z,392
2018-12-15T12:39:37.094Z,336
2018-12-15T12:40:36.937Z,256
2018-12-15T12:41:36.900Z,236
2018-12-15T12:42:37.174Z,224
2018-12-15T12:43:37.211Z,196
2018-12-15T12:44:36.921Z,172
2018-12-15T12:45:37.421Z,156
2018-12-15T12:46:37.460Z,160
2018-12-15T12:47:37.411Z,172
2018-12-15T12:48:37.915Z,176
2018-12-15T12:49:37.657Z,172
2018-12-15T12:50:37.790Z,184
2018-12-15T12:51:37.961Z,204
2018-12-15T12:52:37.985Z,216
2018-12-15T12:53:37.991Z,236
2018-12-15T12:54:37.755Z,296
2018-12-15T12:55:38.072Z,316
2018-12-15T12:56:37.806Z,332
2018-12-15T12:57:37.330Z,336
2018-12-15T12:58:37.869Z,332
2018-12-15T12:59:38.377Z,324
2018-12-15T13:00:38.705Z,316
2018-12-15T13:01:40.936Z,312
2018-12-15T13:02:38.713Z,316
2018-12-15T13:03:39.135Z,312
2018-12-15T13:04:38.723Z,316
2018-12-15T13:05:38.970Z,324
2018-12-15T13:06:38.790Z,328
2018-12-15T13:07:39.160Z,324
2018-12-15T13:08:39.401Z,312
2018-12-15T13:09:38.901Z,304
2018-12-15T13:10:38.302Z,308
2018-12-15T13:11:39.653Z,308
2018-12-15T13:12:39.766Z,304
2018-12-15T13:13:43.109Z,304
2018-12-15T13:14:40.105Z,316
2018-12-15T13:15:39.027Z,316
2018-12-15T13:16:38.960Z,304
2018-12-15T13:17:39.833Z,296
2018-12-15T13:18:39.259Z,296
2018-12-15T13:19:38.869Z,304
2018-12-15T13:20:39.447Z,300
2018-12-15T13:21:39.792Z,300
2018-12-15T13:22:38.921Z,296
2018-12-15T13:23:39.655Z,288
2018-12-15T13:24:39.361Z,280
2018-12-15T13:25:39.163Z,272
2018-12-15T13:26:42.324Z,272
2018-12-15T13:27:39.899Z,268
2018-12-15T13:28:39.398Z,268
2018-12-15T13:29:39.984Z,268
2018-12-15T13:30:41.113Z,268
2018-12-15T13:31:39.591Z,276
2018-12-15T13:32:39.195Z,272
2018-12-15T13:33:40.144Z,268
2018-12-15T13:34:39.930Z,268
2018-12-15T13:35:39.628Z,264
2018-12-15T13:36:41.447Z,260
2018-12-15T13:37:39.852Z,244
2018-12-15T13:38:39.317Z,240
2018-12-15T13:39:39.435Z,236
2018-12-15T13:40:39.411Z,232
2018-12-15T13:41:39.710Z,232
2018-12-15T13:42:39.668Z,228
2018-12-15T13:43:39.803Z,224
2018-12-15T13:44:41.015Z,220
2018-12-15T13:45:40.157Z,224
2018-12-15T13:46:40.562Z,220
2018-12-15T13:47:40.767Z,224
2018-12-15T13:48:40.125Z,220
2018-12-15T13:49:40.139Z,220
